sensor_id;sensor_type;location;lat;lon;timestamp;temperature;humidity
44705;DHT22;30431;48.520;9.046;2023-02-03T00:01:36;6.00;99.90
44705;DHT22;30431;48.520;9.046;2023-02-03T00:04:03;6.00;99.90
44705;DHT22;30431;48.520;9.046;2023-02-03T00:06:31;6.00;99.90
44705;DHT22;30431;48.520;9.046;2023-02-03T00:09:01;6.00;99.90
44705;DHT22;30431;48.520;9.046;2023-02-03T00:11:31;6.00;99.90
44705;DHT22;30431;48.520;9.046;2023-02-03T00:13:58;6.00;99.90
44705;DHT22;30431;48.520;9.046;2023-02-03T00:16:27;6.00;99.90
44705;DHT22;30431;48.520;9.046;2023-02-03T00:18:55;6.00;99.90
44705;DHT22;30431;48.520;9.046;2023-02-03T00:21:22;6.00;99.90
44705;DHT22;30431;48.520;9.046;2023-02-03T00:23:49;6.00;99.90
44705;DHT22;30431;48.520;9.046;2023-02-03T00:26:17;6.00;99.90
44705;DHT22;30431;48.520;9.046;2023-02-03T00:28:44;6.00;99.90
44705;DHT22;30431;48.520;9.046;2023-02-03T00:31:19;6.00;99.90
44705;DHT22;30431;48.520;9.046;2023-02-03T00:33:55;5.90;99.90
44705;DHT22;30431;48.520;9.046;2023-02-03T00:36:24;5.90;99.90
44705;DHT22;30431;48.520;9.046;2023-02-03T00:38:51;5.90;99.90
44705;DHT22;30431;48.520;9.046;2023-02-03T00:41:19;5.90;99.90
44705;DHT22;30431;48.520;9.046;2023-02-03T00:43:47;5.90;99.90
44705;DHT22;30431;48.520;9.046;2023-02-03T00:46:16;5.90;99.90
44705;DHT22;30431;48.520;9.046;2023-02-03T00:48:43;5.90;99.90
44705;DHT22;30431;48.520;9.046;2023-02-03T00:51:11;5.80;99.90
44705;DHT22;30431;48.520;9.046;2023-02-03T00:53:38;5.80;99.90
44705;DHT22;30431;48.520;9.046;2023-02-03T00:56:05;5.80;99.90
44705;DHT22;30431;48.520;9.046;2023-02-03T00:58:39;5.80;99.90
44705;DHT22;30431;48.520;9.046;2023-02-03T01:01:10;5.80;99.90
44705;DHT22;30431;48.520;9.046;2023-02-03T01:03:38;5.80;99.90
44705;DHT22;30431;48.520;9.046;2023-02-03T01:06:17;5.70;99.90
44705;DHT22;30431;48.520;9.046;2023-02-03T01:08:48;5.70;99.90
44705;DHT22;30431;48.520;9.046;2023-02-03T01:11:20;5.70;99.90
44705;DHT22;30431;48.520;9.046;2023-02-03T01:13:50;5.70;99.90
44705;DHT22;30431;48.520;9.046;2023-02-03T01:16:22;5.70;99.90
44705;DHT22;30431;48.520;9.046;2023-02-03T01:18:53;5.70;99.90
44705;DHT22;30431;48.520;9.046;2023-02-03T01:21:24;5.80;99.90
44705;DHT22;30431;48.520;9.046;2023-02-03T01:23:52;5.80;99.90
44705;DHT22;30431;48.520;9.046;2023-02-03T01:26:25;5.80;99.90
44705;DHT22;30431;48.520;9.046;2023-02-03T01:28:58;5.90;99.90
44705;DHT22;30431;48.520;9.046;2023-02-03T01:31:31;5.90;99.90
44705;DHT22;30431;48.520;9.046;2023-02-03T01:34:01;5.90;99.90
44705;DHT22;30431;48.520;9.046;2023-02-03T01:36:30;5.90;99.90
44705;DHT22;30431;48.520;9.046;2023-02-03T01:38:57;6.00;99.90
44705;DHT22;30431;48.520;9.046;2023-02-03T01:41:30;6.00;99.90
44705;DHT22;30431;48.520;9.046;2023-02-03T01:43:59;6.00;99.90
44705;DHT22;30431;48.520;9.046;2023-02-03T01:46:34;6.10;99.90
44705;DHT22;30431;48.520;9.046;2023-02-03T01:49:17;6.10;99.90
44705;DHT22;30431;48.520;9.046;2023-02-03T01:51:48;6.10;99.90
44705;DHT22;30431;48.520;9.046;2023-02-03T01:54:16;6.10;99.90
44705;DHT22;30431;48.520;9.046;2023-02-03T01:56:47;6.00;99.90
44705;DHT22;30431;48.520;9.046;2023-02-03T01:59:18;6.10;99.90
44705;DHT22;30431;48.520;9.046;2023-02-03T02:01:45;6.10;99.90
44705;DHT22;30431;48.520;9.046;2023-02-03T02:04:12;6.10;99.90
44705;DHT22;30431;48.520;9.046;2023-02-03T02:06:40;6.10;99.90
44705;DHT22;30431;48.520;9.046;2023-02-03T02:09:11;6.10;99.90
44705;DHT22;30431;48.520;9.046;2023-02-03T02:11:40;6.10;99.90
44705;DHT22;30431;48.520;9.046;2023-02-03T02:14:07;6.10;99.90
44705;DHT22;30431;48.520;9.046;2023-02-03T02:16:57;6.10;99.90
44705;DHT22;30431;48.520;9.046;2023-02-03T02:39:01;6.20;99.90
44705;DHT22;30431;48.520;9.046;2023-02-03T02:41:48;6.20;99.90
44705;DHT22;30431;48.520;9.046;2023-02-03T02:44:24;6.30;99.90
44705;DHT22;30431;48.520;9.046;2023-02-03T02:46:58;6.30;99.90
44705;DHT22;30431;48.520;9.046;2023-02-03T02:49:31;6.20;99.90
44705;DHT22;30431;48.520;9.046;2023-02-03T02:52:03;6.20;99.90
44705;DHT22;30431;48.520;9.046;2023-02-03T02:54:36;6.20;99.90
44705;DHT22;30431;48.520;9.046;2023-02-03T02:57:05;6.20;99.90
44705;DHT22;30431;48.520;9.046;2023-02-03T02:59:35;6.20;99.90
44705;DHT22;30431;48.520;9.046;2023-02-03T03:02:02;6.20;99.90
44705;DHT22;30431;48.520;9.046;2023-02-03T03:04:30;6.20;99.90
44705;DHT22;30431;48.520;9.046;2023-02-03T03:07:14;6.10;99.90
44705;DHT22;30431;48.520;9.046;2023-02-03T03:09:46;6.10;99.90
44705;DHT22;30431;48.520;9.046;2023-02-03T03:12:19;6.10;99.90
44705;DHT22;30431;48.520;9.046;2023-02-03T03:14:53;6.10;99.90
44705;DHT22;30431;48.520;9.046;2023-02-03T03:17:27;6.10;99.90
44705;DHT22;30431;48.520;9.046;2023-02-03T03:20:02;6.10;99.90
44705;DHT22;30431;48.520;9.046;2023-02-03T03:22:39;6.10;99.90
44705;DHT22;30431;48.520;9.046;2023-02-03T03:25:21;6.10;99.90
44705;DHT22;30431;48.520;9.046;2023-02-03T03:27:56;6.10;99.90
44705;DHT22;30431;48.520;9.046;2023-02-03T03:30:32;6.10;99.90
44705;DHT22;30431;48.520;9.046;2023-02-03T03:33:00;6.10;99.90
44705;DHT22;30431;48.520;9.046;2023-02-03T03:36:17;6.10;99.90
44705;DHT22;30431;48.520;9.046;2023-02-03T03:38:35;6.10;99.90
44705;DHT22;30431;48.520;9.046;2023-02-03T03:41:13;6.20;99.90
44705;DHT22;30431;48.520;9.046;2023-02-03T03:43:43;6.20;99.90
44705;DHT22;30431;48.520;9.046;2023-02-03T03:46:26;6.20;99.90
44705;DHT22;30431;48.520;9.046;2023-02-03T03:49:01;6.20;99.90
44705;DHT22;30431;48.520;9.046;2023-02-03T03:53:56;6.20;99.90
44705;DHT22;30431;48.520;9.046;2023-02-03T03:56:32;6.20;99.90
44705;DHT22;30431;48.520;9.046;2023-02-03T03:59:01;6.20;99.90
44705;DHT22;30431;48.520;9.046;2023-02-03T04:01:30;6.20;99.90
44705;DHT22;30431;48.520;9.046;2023-02-03T04:04:01;6.20;99.90
44705;DHT22;30431;48.520;9.046;2023-02-03T04:06:31;6.20;99.90
44705;DHT22;30431;48.520;9.046;2023-02-03T04:09:00;6.10;99.90
44705;DHT22;30431;48.520;9.046;2023-02-03T04:11:30;6.10;99.90
44705;DHT22;30431;48.520;9.046;2023-02-03T04:14:19;6.10;99.90
44705;DHT22;30431;48.520;9.046;2023-02-03T04:16:46;6.20;99.90
44705;DHT22;30431;48.520;9.046;2023-02-03T04:19:13;6.20;99.90
44705;DHT22;30431;48.520;9.046;2023-02-03T04:21:39;6.20;99.90
44705;DHT22;30431;48.520;9.046;2023-02-03T04:24:06;6.20;99.90
44705;DHT22;30431;48.520;9.046;2023-02-03T04:26:36;6.20;99.90
44705;DHT22;30431;48.520;9.046;2023-02-03T04:29:04;6.20;99.90
44705;DHT22;30431;48.520;9.046;2023-02-03T04:31:31;6.30;99.90
44705;DHT22;30431;48.520;9.046;2023-02-03T04:33:58;6.30;99.90
44705;DHT22;30431;48.520;9.046;2023-02-03T04:36:25;6.30;99.90
44705;DHT22;30431;48.520;9.046;2023-02-03T04:38:54;6.20;99.90
44705;DHT22;30431;48.520;9.046;2023-02-03T04:41:24;6.20;99.90
44705;DHT22;30431;48.520;9.046;2023-02-03T04:43:50;6.20;99.90
44705;DHT22;30431;48.520;9.046;2023-02-03T04:46:18;6.20;99.90
44705;DHT22;30431;48.520;9.046;2023-02-03T04:48:45;6.20;99.90
44705;DHT22;30431;48.520;9.046;2023-02-03T04:51:12;6.20;99.90
44705;DHT22;30431;48.520;9.046;2023-02-03T04:53:39;6.20;99.90
44705;DHT22;30431;48.520;9.046;2023-02-03T04:56:06;6.20;99.90
44705;DHT22;30431;48.520;9.046;2023-02-03T04:58:33;6.20;99.90
44705;DHT22;30431;48.520;9.046;2023-02-03T05:01:06;6.20;99.90
44705;DHT22;30431;48.520;9.046;2023-02-03T05:03:34;6.20;99.90
44705;DHT22;30431;48.520;9.046;2023-02-03T05:06:02;6.20;99.90
44705;DHT22;30431;48.520;9.046;2023-02-03T05:08:31;6.20;99.90
44705;DHT22;30431;48.520;9.046;2023-02-03T05:10:58;6.20;99.90
44705;DHT22;30431;48.520;9.046;2023-02-03T05:13:28;6.30;99.90
44705;DHT22;30431;48.520;9.046;2023-02-03T05:15:55;6.30;99.90
44705;DHT22;30431;48.520;9.046;2023-02-03T05:18:24;6.20;99.90
44705;DHT22;30431;48.520;9.046;2023-02-03T05:20:53;6.20;99.90
44705;DHT22;30431;48.520;9.046;2023-02-03T05:23:20;6.20;99.90
44705;DHT22;30431;48.520;9.046;2023-02-03T05:25:47;6.10;99.90
44705;DHT22;30431;48.520;9.046;2023-02-03T05:28:14;6.00;99.90
44705;DHT22;30431;48.520;9.046;2023-02-03T05:30:42;6.00;99.90
44705;DHT22;30431;48.520;9.046;2023-02-03T05:33:09;5.90;99.90
44705;DHT22;30431;48.520;9.046;2023-02-03T05:35:36;5.90;99.90
44705;DHT22;30431;48.520;9.046;2023-02-03T05:38:04;5.90;99.90
44705;DHT22;30431;48.520;9.046;2023-02-03T05:40:38;5.90;99.90
44705;DHT22;30431;48.520;9.046;2023-02-03T05:43:24;6.00;99.90
44705;DHT22;30431;48.520;9.046;2023-02-03T05:45:53;6.00;99.90
44705;DHT22;30431;48.520;9.046;2023-02-03T05:48:23;6.00;99.90
44705;DHT22;30431;48.520;9.046;2023-02-03T05:50:50;6.00;99.90
44705;DHT22;30431;48.520;9.046;2023-02-03T05:53:16;6.10;99.90
44705;DHT22;30431;48.520;9.046;2023-02-03T05:55:44;6.10;99.90
44705;DHT22;30431;48.520;9.046;2023-02-03T05:58:11;6.10;99.90
44705;DHT22;30431;48.520;9.046;2023-02-03T06:00:41;6.10;99.90
44705;DHT22;30431;48.520;9.046;2023-02-03T06:03:08;6.10;99.90
44705;DHT22;30431;48.520;9.046;2023-02-03T06:05:35;6.10;99.90
44705;DHT22;30431;48.520;9.046;2023-02-03T06:08:07;6.10;99.90
44705;DHT22;30431;48.520;9.046;2023-02-03T06:10:34;6.10;99.90
44705;DHT22;30431;48.520;9.046;2023-02-03T06:13:12;6.10;99.90
44705;DHT22;30431;48.520;9.046;2023-02-03T06:15:42;6.10;99.90
44705;DHT22;30431;48.520;9.046;2023-02-03T06:18:09;6.10;99.90
44705;DHT22;30431;48.520;9.046;2023-02-03T06:20:39;6.10;99.90
44705;DHT22;30431;48.520;9.046;2023-02-03T06:23:08;6.10;99.90
44705;DHT22;30431;48.520;9.046;2023-02-03T06:25:37;6.10;99.90
44705;DHT22;30431;48.520;9.046;2023-02-03T06:28:04;6.10;99.90
44705;DHT22;30431;48.520;9.046;2023-02-03T06:30:34;6.10;99.90
44705;DHT22;30431;48.520;9.046;2023-02-03T06:33:01;6.10;99.90
44705;DHT22;30431;48.520;9.046;2023-02-03T06:35:27;6.00;99.90
44705;DHT22;30431;48.520;9.046;2023-02-03T06:37:55;6.00;99.90
44705;DHT22;30431;48.520;9.046;2023-02-03T06:40:21;6.00;99.90
44705;DHT22;30431;48.520;9.046;2023-02-03T06:42:52;6.10;99.90
44705;DHT22;30431;48.520;9.046;2023-02-03T06:45:18;6.00;99.90
44705;DHT22;30431;48.520;9.046;2023-02-03T06:47:48;6.00;99.90
44705;DHT22;30431;48.520;9.046;2023-02-03T06:50:17;6.10;99.90
44705;DHT22;30431;48.520;9.046;2023-02-03T06:52:46;6.10;99.90
44705;DHT22;30431;48.520;9.046;2023-02-03T06:55:14;6.00;99.90
44705;DHT22;30431;48.520;9.046;2023-02-03T06:57:45;6.00;99.90
44705;DHT22;30431;48.520;9.046;2023-02-03T07:00:14;6.00;99.90
44705;DHT22;30431;48.520;9.046;2023-02-03T07:02:45;6.00;99.90
44705;DHT22;30431;48.520;9.046;2023-02-03T07:05:14;6.00;99.90
44705;DHT22;30431;48.520;9.046;2023-02-03T07:07:41;6.00;99.90
44705;DHT22;30431;48.520;9.046;2023-02-03T07:10:08;6.00;99.90
44705;DHT22;30431;48.520;9.046;2023-02-03T07:12:38;6.00;99.90
44705;DHT22;30431;48.520;9.046;2023-02-03T07:15:05;6.00;99.90
44705;DHT22;30431;48.520;9.046;2023-02-03T07:17:35;6.00;99.90
44705;DHT22;30431;48.520;9.046;2023-02-03T07:20:03;6.10;99.90
44705;DHT22;30431;48.520;9.046;2023-02-03T07:22:32;6.10;99.90
44705;DHT22;30431;48.520;9.046;2023-02-03T07:24:59;6.10;99.90
44705;DHT22;30431;48.520;9.046;2023-02-03T07:27:26;6.10;99.90
44705;DHT22;30431;48.520;9.046;2023-02-03T07:29:53;6.20;99.90
44705;DHT22;30431;48.520;9.046;2023-02-03T07:32:20;6.20;99.90
44705;DHT22;30431;48.520;9.046;2023-02-03T07:34:47;6.30;99.90
44705;DHT22;30431;48.520;9.046;2023-02-03T07:37:14;6.30;99.90
44705;DHT22;30431;48.520;9.046;2023-02-03T07:39:43;6.40;99.90
44705;DHT22;30431;48.520;9.046;2023-02-03T07:42:12;6.40;99.90
44705;DHT22;30431;48.520;9.046;2023-02-03T07:44:43;6.50;99.90
44705;DHT22;30431;48.520;9.046;2023-02-03T07:47:15;6.50;99.90
44705;DHT22;30431;48.520;9.046;2023-02-03T07:49:42;6.50;99.90
44705;DHT22;30431;48.520;9.046;2023-02-03T07:52:11;6.60;99.90
44705;DHT22;30431;48.520;9.046;2023-02-03T07:54:38;6.80;99.90
44705;DHT22;30431;48.520;9.046;2023-02-03T07:57:05;6.90;99.90
44705;DHT22;30431;48.520;9.046;2023-02-03T07:59:34;6.90;99.90
44705;DHT22;30431;48.520;9.046;2023-02-03T08:02:01;6.90;99.90
44705;DHT22;30431;48.520;9.046;2023-02-03T08:04:28;6.90;99.90
44705;DHT22;30431;48.520;9.046;2023-02-03T08:06:55;6.80;99.90
44705;DHT22;30431;48.520;9.046;2023-02-03T08:09:22;6.80;99.90
44705;DHT22;30431;48.520;9.046;2023-02-03T08:11:49;6.80;99.90
44705;DHT22;30431;48.520;9.046;2023-02-03T08:14:16;6.80;99.90
44705;DHT22;30431;48.520;9.046;2023-02-03T08:16:46;6.80;99.90
44705;DHT22;30431;48.520;9.046;2023-02-03T08:19:13;6.70;99.90
44705;DHT22;30431;48.520;9.046;2023-02-03T08:21:42;6.70;99.90
44705;DHT22;30431;48.520;9.046;2023-02-03T08:24:10;6.70;99.90
44705;DHT22;30431;48.520;9.046;2023-02-03T08:26:39;6.70;99.90
44705;DHT22;30431;48.520;9.046;2023-02-03T08:29:09;6.80;99.90
44705;DHT22;30431;48.520;9.046;2023-02-03T08:31:41;6.90;99.90
44705;DHT22;30431;48.520;9.046;2023-02-03T08:34:08;7.00;99.90
44705;DHT22;30431;48.520;9.046;2023-02-03T08:36:35;7.10;99.90
44705;DHT22;30431;48.520;9.046;2023-02-03T08:39:05;7.20;99.90
44705;DHT22;30431;48.520;9.046;2023-02-03T08:41:35;7.20;99.90
44705;DHT22;30431;48.520;9.046;2023-02-03T08:44:03;7.20;99.90
44705;DHT22;30431;48.520;9.046;2023-02-03T08:46:31;7.20;99.90
44705;DHT22;30431;48.520;9.046;2023-02-03T08:49:01;7.30;99.90
44705;DHT22;30431;48.520;9.046;2023-02-03T08:51:29;7.30;99.90
44705;DHT22;30431;48.520;9.046;2023-02-03T08:53:56;7.30;99.90
44705;DHT22;30431;48.520;9.046;2023-02-03T08:56:23;7.30;99.90
44705;DHT22;30431;48.520;9.046;2023-02-03T08:58:52;7.30;99.90
44705;DHT22;30431;48.520;9.046;2023-02-03T09:01:23;7.30;99.90
44705;DHT22;30431;48.520;9.046;2023-02-03T09:03:51;7.40;99.90
44705;DHT22;30431;48.520;9.046;2023-02-03T09:06:20;7.50;99.90
44705;DHT22;30431;48.520;9.046;2023-02-03T09:08:50;7.50;99.90
44705;DHT22;30431;48.520;9.046;2023-02-03T09:11:21;7.50;99.90
44705;DHT22;30431;48.520;9.046;2023-02-03T09:13:48;7.60;99.90
44705;DHT22;30431;48.520;9.046;2023-02-03T09:16:19;7.50;99.90
44705;DHT22;30431;48.520;9.046;2023-02-03T09:18:51;7.70;99.90
44705;DHT22;30431;48.520;9.046;2023-02-03T09:21:18;7.80;99.90
44705;DHT22;30431;48.520;9.046;2023-02-03T09:24:03;8.00;99.90
44705;DHT22;30431;48.520;9.046;2023-02-03T09:26:30;8.10;99.90
44705;DHT22;30431;48.520;9.046;2023-02-03T09:28:57;8.10;99.90
44705;DHT22;30431;48.520;9.046;2023-02-03T09:31:24;8.20;99.90
44705;DHT22;30431;48.520;9.046;2023-02-03T09:33:51;8.00;99.90
44705;DHT22;30431;48.520;9.046;2023-02-03T09:36:22;8.10;99.90
44705;DHT22;30431;48.520;9.046;2023-02-03T09:38:49;8.10;99.90
44705;DHT22;30431;48.520;9.046;2023-02-03T09:44:22;8.10;99.90
44705;DHT22;30431;48.520;9.046;2023-02-03T09:46:58;8.00;99.90
44705;DHT22;30431;48.520;9.046;2023-02-03T09:49:35;8.10;99.90
44705;DHT22;30431;48.520;9.046;2023-02-03T09:54:49;8.20;99.90
44705;DHT22;30431;48.520;9.046;2023-02-03T09:57:22;8.30;99.90
44705;DHT22;30431;48.520;9.046;2023-02-03T09:59:50;8.40;99.90
44705;DHT22;30431;48.520;9.046;2023-02-03T10:03:02;8.60;99.90
44705;DHT22;30431;48.520;9.046;2023-02-03T10:19:44;9.50;99.90
44705;DHT22;30431;48.520;9.046;2023-02-03T10:22:22;9.50;99.90
44705;DHT22;30431;48.520;9.046;2023-02-03T10:24:56;9.50;99.90
44705;DHT22;30431;48.520;9.046;2023-02-03T10:27:24;9.60;99.90
44705;DHT22;30431;48.520;9.046;2023-02-03T10:32:56;9.50;99.90
44705;DHT22;30431;48.520;9.046;2023-02-03T10:35:35;9.60;99.90
44705;DHT22;30431;48.520;9.046;2023-02-03T10:38:12;9.80;99.90
44705;DHT22;30431;48.520;9.046;2023-02-03T10:40:41;10.00;99.90
44705;DHT22;30431;48.520;9.046;2023-02-03T10:43:10;10.00;99.90
44705;DHT22;30431;48.520;9.046;2023-02-03T10:45:59;9.80;99.90
44705;DHT22;30431;48.520;9.046;2023-02-03T10:48:29;9.70;99.90
44705;DHT22;30431;48.520;9.046;2023-02-03T10:50:56;9.80;99.90
44705;DHT22;30431;48.520;9.046;2023-02-03T10:53:31;9.70;99.90
44705;DHT22;30431;48.520;9.046;2023-02-03T10:58:36;9.30;99.90
44705;DHT22;30431;48.520;9.046;2023-02-03T11:01:09;9.10;99.90
44705;DHT22;30431;48.520;9.046;2023-02-03T11:03:38;9.10;99.90
44705;DHT22;30431;48.520;9.046;2023-02-03T11:06:16;8.90;99.90
44705;DHT22;30431;48.520;9.046;2023-02-03T11:08:47;8.80;99.90
44705;DHT22;30431;48.520;9.046;2023-02-03T11:11:27;8.60;99.90
44705;DHT22;30431;48.520;9.046;2023-02-03T11:13:55;8.50;99.90
44705;DHT22;30431;48.520;9.046;2023-02-03T11:16:35;8.60;99.90
44705;DHT22;30431;48.520;9.046;2023-02-03T11:19:18;8.80;99.90
44705;DHT22;30431;48.520;9.046;2023-02-03T11:21:52;9.00;99.90
44705;DHT22;30431;48.520;9.046;2023-02-03T11:24:22;9.20;99.90
44705;DHT22;30431;48.520;9.046;2023-02-03T11:26:53;9.40;99.90
44705;DHT22;30431;48.520;9.046;2023-02-03T11:29:25;9.60;99.90
44705;DHT22;30431;48.520;9.046;2023-02-03T11:31:59;9.40;99.90
44705;DHT22;30431;48.520;9.046;2023-02-03T11:34:36;9.30;99.90
44705;DHT22;30431;48.520;9.046;2023-02-03T11:42:43;8.90;99.90
44705;DHT22;30431;48.520;9.046;2023-02-03T11:53:29;8.80;99.90
44705;DHT22;30431;48.520;9.046;2023-02-03T11:56:28;9.00;99.90
44705;DHT22;30431;48.520;9.046;2023-02-03T12:04:55;8.70;99.90
44705;DHT22;30431;48.520;9.046;2023-02-03T12:07:51;8.50;99.90
44705;DHT22;30431;48.520;9.046;2023-02-03T12:10:32;8.50;99.90
44705;DHT22;30431;48.520;9.046;2023-02-03T12:13:30;8.50;99.90
44705;DHT22;30431;48.520;9.046;2023-02-03T12:16:12;8.40;99.90
44705;DHT22;30431;48.520;9.046;2023-02-03T12:21:44;8.50;99.90
44705;DHT22;30431;48.520;9.046;2023-02-03T12:30:13;8.50;99.90
44705;DHT22;30431;48.520;9.046;2023-02-03T12:32:50;8.50;99.90
44705;DHT22;30431;48.520;9.046;2023-02-03T12:40:59;8.40;99.90
44705;DHT22;30431;48.520;9.046;2023-02-03T12:43:41;8.70;99.90
44705;DHT22;30431;48.520;9.046;2023-02-03T12:46:18;8.60;99.90
44705;DHT22;30431;48.520;9.046;2023-02-03T12:48:53;8.70;99.90
44705;DHT22;30431;48.520;9.046;2023-02-03T12:51:48;8.60;99.90
44705;DHT22;30431;48.520;9.046;2023-02-03T12:57:35;8.60;99.90
44705;DHT22;30431;48.520;9.046;2023-02-03T13:00:14;8.70;99.90
44705;DHT22;30431;48.520;9.046;2023-02-03T13:03:09;8.70;99.90
44705;DHT22;30431;48.520;9.046;2023-02-03T13:05:42;8.70;99.90
44705;DHT22;30431;48.520;9.046;2023-02-03T13:13:47;8.30;99.90
44705;DHT22;30431;48.520;9.046;2023-02-03T13:16:30;8.20;99.90
44705;DHT22;30431;48.520;9.046;2023-02-03T13:19:08;8.10;99.90
44705;DHT22;30431;48.520;9.046;2023-02-03T13:21:39;8.00;99.90
44705;DHT22;30431;48.520;9.046;2023-02-03T13:24:10;8.00;99.90
44705;DHT22;30431;48.520;9.046;2023-02-03T13:43:30;8.10;99.90
44705;DHT22;30431;48.520;9.046;2023-02-03T13:46:07;8.10;99.90
44705;DHT22;30431;48.520;9.046;2023-02-03T13:48:46;8.00;99.90
44705;DHT22;30431;48.520;9.046;2023-02-03T13:51:16;8.10;99.90
44705;DHT22;30431;48.520;9.046;2023-02-03T13:53:44;8.10;99.90
44705;DHT22;30431;48.520;9.046;2023-02-03T13:56:21;8.00;99.90
44705;DHT22;30431;48.520;9.046;2023-02-03T14:01:42;8.10;99.90
44705;DHT22;30431;48.520;9.046;2023-02-03T14:12:20;8.10;99.90
44705;DHT22;30431;48.520;9.046;2023-02-03T14:25:47;8.00;99.90
44705;DHT22;30431;48.520;9.046;2023-02-03T14:28:22;8.00;99.90
44705;DHT22;30431;48.520;9.046;2023-02-03T14:36:28;8.00;99.90
44705;DHT22;30431;48.520;9.046;2023-02-03T14:39:19;8.00;99.90
44705;DHT22;30431;48.520;9.046;2023-02-03T14:44:50;8.00;99.90
44705;DHT22;30431;48.520;9.046;2023-02-03T14:58:02;8.00;99.90
44705;DHT22;30431;48.520;9.046;2023-02-03T15:00:33;8.00;99.90
44705;DHT22;30431;48.520;9.046;2023-02-03T15:10:55;8.00;99.90
44705;DHT22;30431;48.520;9.046;2023-02-03T15:13:23;8.00;99.90
44705;DHT22;30431;48.520;9.046;2023-02-03T15:16:02;8.00;99.90
44705;DHT22;30431;48.520;9.046;2023-02-03T15:18:35;7.90;99.90
44705;DHT22;30431;48.520;9.046;2023-02-03T15:21:03;7.90;99.90
44705;DHT22;30431;48.520;9.046;2023-02-03T15:23:41;7.80;99.90
44705;DHT22;30431;48.520;9.046;2023-02-03T15:26:24;7.80;99.90
44705;DHT22;30431;48.520;9.046;2023-02-03T15:28:56;7.80;99.90
44705;DHT22;30431;48.520;9.046;2023-02-03T15:31:31;7.70;99.90
44705;DHT22;30431;48.520;9.046;2023-02-03T15:34:46;7.70;99.90
44705;DHT22;30431;48.520;9.046;2023-02-03T15:36:59;7.70;99.90
44705;DHT22;30431;48.520;9.046;2023-02-03T15:42:37;7.60;99.90
44705;DHT22;30431;48.520;9.046;2023-02-03T15:45:29;7.60;99.90
44705;DHT22;30431;48.520;9.046;2023-02-03T15:48:15;7.60;99.90
44705;DHT22;30431;48.520;9.046;2023-02-03T15:50:54;7.60;99.90
44705;DHT22;30431;48.520;9.046;2023-02-03T15:53:31;7.60;99.90
44705;DHT22;30431;48.520;9.046;2023-02-03T15:56:20;7.60;99.90
44705;DHT22;30431;48.520;9.046;2023-02-03T15:58:48;7.50;99.90
44705;DHT22;30431;48.520;9.046;2023-02-03T16:01:19;7.50;99.90
44705;DHT22;30431;48.520;9.046;2023-02-03T16:03:52;7.60;99.90
44705;DHT22;30431;48.520;9.046;2023-02-03T16:08:47;7.40;99.90
44705;DHT22;30431;48.520;9.046;2023-02-03T16:13:49;7.40;99.90
44705;DHT22;30431;48.520;9.046;2023-02-03T16:16:21;7.50;99.90
44705;DHT22;30431;48.520;9.046;2023-02-03T16:18:55;7.50;99.90
44705;DHT22;30431;48.520;9.046;2023-02-03T16:21:30;7.50;99.90
44705;DHT22;30431;48.520;9.046;2023-02-03T16:23:58;7.50;99.90
44705;DHT22;30431;48.520;9.046;2023-02-03T16:26:27;7.50;99.90
44705;DHT22;30431;48.520;9.046;2023-02-03T16:31:53;7.40;99.90
44705;DHT22;30431;48.520;9.046;2023-02-03T16:34:39;7.50;99.90
44705;DHT22;30431;48.520;9.046;2023-02-03T16:37:28;7.40;99.90
44705;DHT22;30431;48.520;9.046;2023-02-03T16:40:20;7.40;99.90
44705;DHT22;30431;48.520;9.046;2023-02-03T16:43:13;7.40;99.90
44705;DHT22;30431;48.520;9.046;2023-02-03T16:46:00;7.40;99.90
44705;DHT22;30431;48.520;9.046;2023-02-03T16:48:45;7.40;99.90
44705;DHT22;30431;48.520;9.046;2023-02-03T16:51:41;7.40;99.90
44705;DHT22;30431;48.520;9.046;2023-02-03T16:54:13;7.30;99.90
44705;DHT22;30431;48.520;9.046;2023-02-03T16:56:40;7.30;99.90
44705;DHT22;30431;48.520;9.046;2023-02-03T16:59:07;7.30;99.90
44705;DHT22;30431;48.520;9.046;2023-02-03T17:01:35;7.30;99.90
44705;DHT22;30431;48.520;9.046;2023-02-03T17:04:02;7.30;99.90
44705;DHT22;30431;48.520;9.046;2023-02-03T17:06:31;7.30;99.90
44705;DHT22;30431;48.520;9.046;2023-02-03T17:09:01;7.20;99.90
44705;DHT22;30431;48.520;9.046;2023-02-03T17:11:28;7.20;99.90
44705;DHT22;30431;48.520;9.046;2023-02-03T17:13:55;7.30;99.90
44705;DHT22;30431;48.520;9.046;2023-02-03T17:16:26;7.20;99.90
44705;DHT22;30431;48.520;9.046;2023-02-03T17:18:53;7.30;99.90
44705;DHT22;30431;48.520;9.046;2023-02-03T17:21:27;7.30;99.90
44705;DHT22;30431;48.520;9.046;2023-02-03T17:23:57;7.30;99.90
44705;DHT22;30431;48.520;9.046;2023-02-03T17:26:24;7.30;99.90
44705;DHT22;30431;48.520;9.046;2023-02-03T17:28:51;7.30;99.90
44705;DHT22;30431;48.520;9.046;2023-02-03T17:31:20;7.30;99.90
44705;DHT22;30431;48.520;9.046;2023-02-03T17:33:51;7.30;99.90
44705;DHT22;30431;48.520;9.046;2023-02-03T17:36:19;7.30;99.90
44705;DHT22;30431;48.520;9.046;2023-02-03T17:38:54;7.30;99.90
44705;DHT22;30431;48.520;9.046;2023-02-03T17:41:41;7.30;99.90
44705;DHT22;30431;48.520;9.046;2023-02-03T17:44:26;7.30;99.90
44705;DHT22;30431;48.520;9.046;2023-02-03T17:47:10;7.30;99.90
44705;DHT22;30431;48.520;9.046;2023-02-03T17:49:57;7.30;99.90
44705;DHT22;30431;48.520;9.046;2023-02-03T17:52:47;7.30;99.90
44705;DHT22;30431;48.520;9.046;2023-02-03T17:55:29;7.30;99.90
44705;DHT22;30431;48.520;9.046;2023-02-03T17:57:59;7.30;99.90
44705;DHT22;30431;48.520;9.046;2023-02-03T18:00:26;7.30;99.90
44705;DHT22;30431;48.520;9.046;2023-02-03T18:02:54;7.30;99.90
44705;DHT22;30431;48.520;9.046;2023-02-03T18:05:22;7.30;99.90
44705;DHT22;30431;48.520;9.046;2023-02-03T18:07:49;7.30;99.90
44705;DHT22;30431;48.520;9.046;2023-02-03T18:10:16;7.20;99.90
44705;DHT22;30431;48.520;9.046;2023-02-03T18:12:43;7.20;99.90
44705;DHT22;30431;48.520;9.046;2023-02-03T18:15:10;7.20;99.90
44705;DHT22;30431;48.520;9.046;2023-02-03T18:17:37;7.20;99.90
44705;DHT22;30431;48.520;9.046;2023-02-03T18:20:07;7.20;99.90
44705;DHT22;30431;48.520;9.046;2023-02-03T18:22:34;7.20;99.90
44705;DHT22;30431;48.520;9.046;2023-02-03T18:25:02;7.20;99.90
44705;DHT22;30431;48.520;9.046;2023-02-03T18:27:29;7.20;99.90
44705;DHT22;30431;48.520;9.046;2023-02-03T18:29:56;7.20;99.90
44705;DHT22;30431;48.520;9.046;2023-02-03T18:32:29;7.10;99.90
44705;DHT22;30431;48.520;9.046;2023-02-03T18:34:56;7.10;99.90
44705;DHT22;30431;48.520;9.046;2023-02-03T18:37:25;7.10;99.90
44705;DHT22;30431;48.520;9.046;2023-02-03T18:39:55;7.00;99.90
44705;DHT22;30431;48.520;9.046;2023-02-03T18:42:22;7.00;99.90
44705;DHT22;30431;48.520;9.046;2023-02-03T18:44:49;7.00;99.90
44705;DHT22;30431;48.520;9.046;2023-02-03T18:47:19;7.00;99.90
44705;DHT22;30431;48.520;9.046;2023-02-03T18:49:46;6.90;99.90
44705;DHT22;30431;48.520;9.046;2023-02-03T18:52:15;7.00;99.90
44705;DHT22;30431;48.520;9.046;2023-02-03T18:54:42;6.90;99.90
44705;DHT22;30431;48.520;9.046;2023-02-03T18:57:12;6.90;99.90
44705;DHT22;30431;48.520;9.046;2023-02-03T18:59:42;6.90;99.90
44705;DHT22;30431;48.520;9.046;2023-02-03T19:02:10;6.90;99.90